Time;durP1;ratioP1;P1;durP2;ratioP2;P2;SDS_P1;SDS_P2;PMS_P1;PMS_P2;Temp;Humidity;BMP_temperature;BMP_pressure;BME280_temperature;BME280_humidity;BME280_pressure;Samples;Min_cycle;Max_cycle;Signal;HPM_P1;HPM_P2
2023/05/31 00:00:22;;;;;;;9.27;5.82;;;10.20;99.90;;;;;;5013883;28;20038;-76
2023/05/31 00:02:47;;;;;;;10.95;5.82;;;10.20;99.90;;;;;;5013603;28;20045;-76
2023/05/31 00:05:13;;;;;;;11.13;6.07;;;10.20;99.90;;;;;;5013582;28;20042;-75
2023/05/31 00:07:39;;;;;;;10.88;6.18;;;10.20;99.90;;;;;;5013458;28;20246;-75
2023/05/31 00:10:05;;;;;;;9.27;6.07;;;10.20;99.90;;;;;;5013626;28;20054;-75
2023/05/31 00:12:31;;;;;;;10.73;6.38;;;10.20;99.90;;;;;;5013711;28;20081;-75
2023/05/31 00:14:57;;;;;;;12.90;6.57;;;10.20;99.90;;;;;;5013246;28;20080;-75
2023/05/31 00:17:23;;;;;;;11.10;6.47;;;10.20;99.90;;;;;;4980904;28;20126;-75
2023/05/31 00:19:48;;;;;;;11.13;6.60;;;10.20;99.90;;;;;;5013222;28;20088;-75
2023/05/31 00:22:16;;;;;;;10.95;6.65;;;10.20;99.90;;;;;;5013243;28;20050;-76
2023/05/31 00:24:45;;;;;;;11.25;6.57;;;10.10;99.90;;;;;;5013247;28;20045;-76
2023/05/31 00:27:11;;;;;;;12.65;7.10;;;10.10;99.90;;;;;;5013093;28;20067;-75
2023/05/31 00:29:37;;;;;;;11.80;6.90;;;10.10;99.90;;;;;;4996895;28;20048;-76
2023/05/31 00:32:03;;;;;;;11.43;7.25;;;10.00;99.90;;;;;;5013037;28;20052;-75
2023/05/31 00:34:29;;;;;;;13.45;7.53;;;10.00;99.90;;;;;;5013061;28;20506;-75
2023/05/31 00:36:54;;;;;;;14.23;7.63;;;10.00;99.90;;;;;;5013314;28;20046;-75
2023/05/31 00:39:20;;;;;;;13.80;8.10;;;9.90;99.90;;;;;;5012983;28;20046;-76
2023/05/31 00:41:46;;;;;;;12.55;8.38;;;9.90;99.90;;;;;;5013005;28;20037;-75
2023/05/31 00:44:12;;;;;;;13.25;8.20;;;9.90;99.90;;;;;;5012993;28;20038;-75
2023/05/31 00:46:39;;;;;;;13.50;8.57;;;9.90;99.90;;;;;;5012932;28;20046;-76
2023/05/31 00:49:06;;;;;;;12.50;8.60;;;9.80;99.90;;;;;;4980505;28;20050;-75
2023/05/31 00:51:32;;;;;;;12.80;8.32;;;9.80;99.90;;;;;;5012611;28;20046;-76
2023/05/31 00:54:00;;;;;;;13.32;8.38;;;9.80;99.90;;;;;;5012806;28;20042;-75
2023/05/31 00:56:26;;;;;;;13.80;8.50;;;9.80;99.90;;;;;;5012741;28;20046;-76
2023/05/31 00:58:55;;;;;;;11.90;7.28;;;9.90;99.90;;;;;;5014150;28;20038;-76
2023/05/31 01:01:26;;;;;;;15.60;8.75;;;9.80;99.90;;;;;;5012623;28;20120;-76
2023/05/31 01:03:56;;;;;;;13.35;8.05;;;9.80;99.90;;;;;;5012614;28;20054;-76
2023/05/31 01:06:23;;;;;;;14.65;8.55;;;9.80;99.90;;;;;;5012578;28;20046;-76
2023/05/31 01:08:50;;;;;;;14.63;9.15;;;9.70;99.90;;;;;;5012528;28;20046;-77
2023/05/31 01:11:28;;;;;;;18.48;9.68;;;9.80;99.90;;;;;;5012480;28;20453;-76
2023/05/31 01:14:31;;;;;;;13.95;8.38;;;9.70;99.90;;;;;;5012321;28;20046;-76
2023/05/31 01:17:13;;;;;;;15.48;8.52;;;9.70;99.90;;;;;;4932869;28;20054;-75
2023/05/31 01:19:52;;;;;;;14.10;8.70;;;9.60;99.90;;;;;;5012529;28;20041;-76
2023/05/31 01:22:50;;;;;;;15.18;9.23;;;9.60;99.90;;;;;;5012706;28;20054;-76
2023/05/31 01:25:40;;;;;;;17.08;8.63;;;9.70;99.90;;;;;;4995925;28;20133;-75
2023/05/31 01:28:10;;;;;;;16.52;8.95;;;9.60;99.90;;;;;;5012518;28;20081;-76
2023/05/31 01:30:38;;;;;;;16.98;8.95;;;9.60;99.90;;;;;;4995725;28;20049;-76
2023/05/31 01:33:09;;;;;;;18.15;9.48;;;9.60;99.90;;;;;;5013644;28;20501;-75
2023/05/31 01:35:35;;;;;;;17.58;9.50;;;9.60;99.90;;;;;;5012474;28;20510;-76
2023/05/31 01:38:00;;;;;;;15.07;8.95;;;9.50;99.90;;;;;;4995753;28;20069;-76
2023/05/31 01:40:26;;;;;;;16.02;9.38;;;9.50;99.90;;;;;;5012276;28;20409;-75
2023/05/31 01:42:53;;;;;;;16.20;8.90;;;9.50;99.90;;;;;;5012053;28;20053;-76
2023/05/31 01:45:21;;;;;;;15.48;8.23;;;9.50;99.90;;;;;;5013297;28;20046;-75
2023/05/31 01:47:49;;;;;;;13.25;8.35;;;9.50;99.90;;;;;;5011958;28;20040;-76
2023/05/31 01:50:17;;;;;;;14.45;8.18;;;9.50;99.90;;;;;;5012027;28;20034;-75
2023/05/31 01:52:43;;;;;;;15.35;8.10;;;9.50;99.90;;;;;;5012065;28;20485;-76
2023/05/31 01:55:09;;;;;;;15.55;9.10;;;9.50;99.90;;;;;;5011938;28;20069;-76
2023/05/31 01:57:39;;;;;;;17.02;8.70;;;9.50;99.90;;;;;;5012144;28;20046;-76
2023/05/31 02:00:11;;;;;;;15.85;8.80;;;9.50;99.90;;;;;;5011901;28;20104;-75
2023/05/31 02:02:43;;;;;;;14.95;8.60;;;9.50;99.90;;;;;;5012144;28;20057;-76
2023/05/31 02:05:12;;;;;;;14.68;8.57;;;9.60;99.90;;;;;;4995783;28;20394;-75
2023/05/31 02:07:43;;;;;;;13.20;7.90;;;9.50;99.90;;;;;;5011860;28;20085;-75
2023/05/31 02:10:10;;;;;;;14.05;8.95;;;9.50;99.90;;;;;;5012914;28;20490;-75
2023/05/31 02:12:36;;;;;;;16.52;8.38;;;9.50;99.90;;;;;;5011745;28;20038;-76
2023/05/31 02:15:03;;;;;;;16.48;8.52;;;9.50;99.90;;;;;;5011977;28;20437;-75
2023/05/31 02:17:32;;;;;;;18.30;9.38;;;9.50;99.90;;;;;;5011863;28;20131;-76
2023/05/31 02:19:59;;;;;;;12.85;7.53;;;9.50;99.90;;;;;;5012844;28;20034;-74
2023/05/31 02:22:25;;;;;;;12.80;7.53;;;9.40;99.90;;;;;;4995281;28;20054;-75
2023/05/31 02:24:51;;;;;;;16.80;8.45;;;9.30;99.90;;;;;;5011670;28;20049;-76
2023/05/31 02:27:16;;;;;;;14.25;7.93;;;9.30;99.90;;;;;;5012901;28;20042;-76
2023/05/31 02:29:45;;;;;;;15.30;8.10;;;9.30;99.90;;;;;;5012883;28;20037;-75
2023/05/31 02:32:11;;;;;;;15.02;7.95;;;9.40;99.90;;;;;;5012191;28;20042;-75
2023/05/31 02:34:38;;;;;;;14.70;8.18;;;9.40;99.90;;;;;;5015414;28;20076;-76
2023/05/31 02:37:04;;;;;;;15.02;8.30;;;9.40;99.90;;;;;;5015635;28;20042;-76
2023/05/31 02:39:30;;;;;;;16.65;8.65;;;9.30;99.90;;;;;;4999175;28;20060;-76
2023/05/31 02:41:56;;;;;;;16.15;9.00;;;9.30;99.90;;;;;;5016804;28;20042;-76
2023/05/31 02:44:21;;;;;;;15.40;8.13;;;9.30;99.90;;;;;;5015135;28;20049;-76
2023/05/31 02:46:47;;;;;;;14.63;8.40;;;9.30;99.90;;;;;;4998832;28;20054;-75
2023/05/31 02:49:13;;;;;;;15.50;8.73;;;9.30;99.90;;;;;;4998695;28;20195;-76
2023/05/31 02:51:39;;;;;;;16.85;8.52;;;9.30;99.90;;;;;;5015042;28;20038;-76
2023/05/31 02:54:05;;;;;;;16.90;9.02;;;9.30;99.90;;;;;;4998634;28;20493;-75
2023/05/31 02:56:30;;;;;;;14.35;8.25;;;9.30;99.90;;;;;;5015201;28;20482;-76
2023/05/31 02:58:56;;;;;;;18.30;8.95;;;9.30;99.90;;;;;;5016472;28;20041;-76
2023/05/31 03:01:22;;;;;;;19.02;8.85;;;9.30;99.90;;;;;;4998512;28;20034;-76
2023/05/31 03:03:48;;;;;;;14.73;8.30;;;9.20;99.90;;;;;;4998779;28;20132;-75
2023/05/31 03:06:16;;;;;;;15.95;9.02;;;9.20;99.90;;;;;;5014731;28;20045;-76
2023/05/31 03:08:42;;;;;;;18.85;9.07;;;9.20;99.90;;;;;;5014900;28;20040;-75
2023/05/31 03:11:08;;;;;;;15.00;7.75;;;9.20;99.90;;;;;;4998330;28;20057;-76
2023/05/31 03:13:34;;;;;;;18.15;9.10;;;9.20;99.90;;;;;;5015788;28;20080;-75
2023/05/31 03:16:00;;;;;;;14.55;8.23;;;9.20;99.90;;;;;;5015855;28;20176;-76
2023/05/31 03:18:26;;;;;;;16.73;8.93;;;9.20;99.90;;;;;;5015819;28;20113;-75
2023/05/31 03:20:52;;;;;;;16.45;8.55;;;9.10;99.90;;;;;;5014318;28;20050;-76
2023/05/31 03:23:20;;;;;;;16.55;8.88;;;9.10;99.90;;;;;;5014378;28;20124;-75
2023/05/31 03:25:46;;;;;;;17.77;9.00;;;9.10;99.90;;;;;;4998233;28;20068;-76
2023/05/31 03:28:12;;;;;;;17.85;8.88;;;9.10;99.90;;;;;;5014649;28;20050;-76
2023/05/31 03:30:37;;;;;;;16.92;9.18;;;9.00;99.90;;;;;;4981780;28;20073;-76
2023/05/31 03:33:03;;;;;;;15.40;8.43;;;9.00;99.90;;;;;;4997889;28;20037;-75
2023/05/31 03:35:29;;;;;;;18.63;9.18;;;9.00;99.90;;;;;;5014433;28;20038;-75
2023/05/31 03:37:55;;;;;;;17.98;9.88;;;9.00;99.90;;;;;;5014381;28;20120;-75
2023/05/31 03:40:20;;;;;;;18.50;9.07;;;9.00;99.90;;;;;;4998126;28;20053;-76
2023/05/31 03:42:46;;;;;;;18.63;9.75;;;9.00;99.90;;;;;;5014081;28;20048;-76
2023/05/31 03:45:12;;;;;;;20.20;10.15;;;9.00;99.90;;;;;;5013637;28;20088;-76
2023/05/31 03:47:38;;;;;;;18.42;10.35;;;9.00;99.90;;;;;;5013877;28;20049;-77
2023/05/31 03:53:44;;;;;;;21.63;10.65;;;9.00;99.90;;;;;;5013890;28;20070;-76
2023/05/31 03:56:10;;;;;;;19.08;10.40;;;8.90;99.90;;;;;;5014913;28;20093;-76
2023/05/31 03:58:35;;;;;;;17.65;9.85;;;9.00;99.90;;;;;;4997715;28;20074;-76
2023/05/31 04:01:02;;;;;;;20.73;10.75;;;9.00;99.90;;;;;;5013856;28;20503;-75
2023/05/31 04:03:28;;;;;;;19.67;10.50;;;9.00;99.90;;;;;;4997563;28;20482;-76
2023/05/31 04:05:54;;;;;;;18.58;9.75;;;9.00;99.90;;;;;;5013649;28;20049;-75
2023/05/31 04:08:20;;;;;;;19.67;10.63;;;9.00;99.90;;;;;;4997262;28;20058;-75
2023/05/31 04:10:46;;;;;;;18.33;10.82;;;9.10;99.90;;;;;;5013628;28;20037;-75
2023/05/31 04:13:11;;;;;;;21.27;10.80;;;9.10;99.90;;;;;;4997301;28;20088;-74
2023/05/31 04:15:37;;;;;;;21.10;10.90;;;9.10;99.90;;;;;;5013709;28;20037;-74
2023/05/31 04:18:03;;;;;;;20.58;10.77;;;9.10;99.90;;;;;;4997091;28;20080;-74
2023/05/31 04:20:30;;;;;;;20.38;11.27;;;9.10;99.90;;;;;;5014627;28;20089;-74
2023/05/31 04:22:55;;;;;;;21.42;11.35;;;9.10;99.90;;;;;;5013328;28;20058;-75
2023/05/31 04:25:21;;;;;;;23.20;11.57;;;9.10;99.90;;;;;;4996785;28;20526;-75
2023/05/31 04:27:49;;;;;;;19.92;10.93;;;9.10;99.90;;;;;;4996926;28;20081;-75
2023/05/31 04:30:15;;;;;;;21.75;11.13;;;9.20;99.90;;;;;;5013213;28;20049;-75
2023/05/31 04:32:41;;;;;;;22.70;11.55;;;9.20;99.90;;;;;;5013081;28;20045;-75
2023/05/31 04:35:08;;;;;;;23.30;11.95;;;9.30;99.90;;;;;;5013166;28;20065;-76
2023/05/31 04:37:35;;;;;;;22.75;11.70;;;9.30;99.90;;;;;;4996962;28;20045;-75
2023/05/31 04:40:02;;;;;;;24.05;12.40;;;9.40;99.90;;;;;;4996982;28;20508;-75
2023/05/31 04:42:28;;;;;;;22.33;12.48;;;9.40;99.90;;;;;;5014150;28;20042;-75
2023/05/31 04:44:58;;;;;;;20.83;11.13;;;9.50;99.90;;;;;;5012978;28;20033;-76
2023/05/31 04:47:41;;;;;;;21.83;12.27;;;9.50;99.90;;;;;;5012947;28;20038;-75
2023/05/31 04:50:08;;;;;;;21.55;11.77;;;9.60;99.90;;;;;;5013049;28;20446;-75
2023/05/31 04:52:33;;;;;;;23.98;12.20;;;9.70;99.90;;;;;;5012620;28;20046;-75
2023/05/31 04:55:00;;;;;;;23.63;12.27;;;9.80;99.90;;;;;;5012550;28;20132;-75
2023/05/31 04:57:26;;;;;;;20.85;12.60;;;9.90;99.90;;;;;;5012182;28;20056;-76
2023/05/31 04:59:53;;;;;;;21.83;12.70;;;10.30;99.90;;;;;;5012957;28;20398;-76
2023/05/31 05:02:20;;;;;;;19.48;11.85;;;10.90;99.90;;;;;;5012836;28;20052;-76
2023/05/31 05:04:47;;;;;;;22.38;12.63;;;11.50;99.90;;;;;;5014190;28;20064;-76
2023/05/31 05:07:14;;;;;;;21.70;11.68;;;11.70;99.90;;;;;;5012823;28;20056;-76
2023/05/31 05:09:40;;;;;;;18.10;11.07;;;12.00;99.90;;;;;;4996347;28;20046;-76
2023/05/31 05:12:07;;;;;;;17.45;11.02;;;13.00;99.90;;;;;;5012766;28;20046;-76
2023/05/31 05:14:33;;;;;;;18.25;9.43;;;13.70;99.90;;;;;;5012375;28;20052;-76
2023/05/31 05:16:59;;;;;;;16.23;9.65;;;14.60;99.90;;;;;;5012416;28;20050;-75
2023/05/31 05:19:25;;;;;;;16.10;9.70;;;14.90;99.90;;;;;;4995971;28;20048;-76
2023/05/31 05:21:50;;;;;;;15.38;9.40;;;15.30;99.90;;;;;;5012065;28;20049;-76
2023/05/31 05:24:16;;;;;;;16.20;9.50;;;15.30;99.90;;;;;;5013522;28;20049;-76
2023/05/31 05:26:43;;;;;;;16.40;9.30;;;16.30;99.90;;;;;;4995872;28;20046;-76
2023/05/31 05:29:08;;;;;;;17.10;9.70;;;16.30;99.90;;;;;;5013455;28;20045;-76
2023/05/31 05:31:34;;;;;;;14.90;8.98;;;17.10;99.90;;;;;;4995865;28;20033;-75
2023/05/31 05:34:03;;;;;;;17.80;10.02;;;17.50;99.90;;;;;;5013196;28;20125;-76
2023/05/31 05:36:29;;;;;;;16.50;9.57;;;17.70;99.90;;;;;;5013558;28;20085;-76
2023/05/31 05:38:58;;;;;;;15.10;9.60;;;17.00;99.90;;;;;;4995797;28;20452;-75
2023/05/31 05:41:25;;;;;;;15.50;9.85;;;18.00;99.90;;;;;;5012087;28;20042;-76
2023/05/31 05:43:51;;;;;;;17.67;9.27;;;18.30;99.90;;;;;;5012059;28;20050;-76
2023/05/31 05:46:17;;;;;;;15.10;9.25;;;18.30;99.90;;;;;;4995661;28;20470;-76
2023/05/31 05:48:43;;;;;;;16.45;9.75;;;18.90;99.90;;;;;;4995654;28;20053;-76
2023/05/31 05:51:09;;;;;;;13.40;8.93;;;18.60;99.90;;;;;;4995961;28;20052;-76
2023/05/31 05:53:35;;;;;;;16.52;10.13;;;18.60;99.90;;;;;;5011970;28;20045;-76
2023/05/31 05:56:01;;;;;;;15.13;9.32;;;18.70;99.90;;;;;;5011784;28;20049;-75
2023/05/31 05:58:27;;;;;;;15.90;8.90;;;18.30;99.90;;;;;;4995540;28;20121;-75
2023/05/31 06:00:52;;;;;;;14.52;9.50;;;18.00;99.90;;;;;;4995524;28;20042;-76
2023/05/31 06:03:19;;;;;;;15.00;9.48;;;18.10;99.90;;;;;;4995712;28;20049;-75
2023/05/31 06:05:45;;;;;;;14.40;8.63;;;18.20;99.90;;;;;;5011757;28;20180;-76
2023/05/31 06:08:11;;;;;;;17.90;10.52;;;17.70;99.90;;;;;;4997892;28;20046;-76
2023/05/31 06:10:37;;;;;;;13.73;8.30;;;17.80;99.90;;;;;;5017144;28;20038;-75
2023/05/31 06:13:04;;;;;;;13.27;8.10;;;18.50;99.90;;;;;;5015530;28;20041;-75
2023/05/31 06:15:30;;;;;;;13.77;8.65;;;18.50;99.90;;;;;;4999431;28;20133;-75
2023/05/31 06:17:56;;;;;;;15.00;8.90;;;18.50;99.90;;;;;;4999028;28;20128;-75
2023/05/31 06:20:22;;;;;;;13.18;8.20;;;19.10;99.90;;;;;;4983170;28;20038;-75
2023/05/31 06:22:49;;;;;;;16.88;7.90;;;19.30;99.90;;;;;;5016684;28;20097;-75
2023/05/31 06:25:17;;;;;;;14.45;8.00;;;19.60;99.90;;;;;;5015421;28;20048;-75
2023/05/31 06:27:45;;;;;;;13.45;8.15;;;19.80;99.90;;;;;;4999408;28;20397;-75
2023/05/31 06:30:15;;;;;;;11.98;7.47;;;20.60;99.90;;;;;;5015632;28;20510;-75
2023/05/31 06:32:40;;;;;;;15.50;8.60;;;21.30;99.90;;;;;;5015510;28;20506;-75
2023/05/31 06:35:06;;;;;;;13.45;7.55;;;20.00;99.90;;;;;;5016532;28;20052;-75
2023/05/31 06:37:41;;;;;;;14.73;7.93;;;19.60;99.90;;;;;;5015400;28;20144;-75
2023/05/31 06:40:08;;;;;;;13.88;8.57;;;20.60;99.90;;;;;;5016902;28;20504;-75
2023/05/31 06:42:34;;;;;;;13.50;7.70;;;21.30;99.30;;;;;;5016677;28;20046;-76
2023/05/31 06:45:00;;;;;;;14.30;8.60;;;21.40;99.90;;;;;;4998980;28;20477;-76
2023/05/31 06:47:26;;;;;;;14.52;7.93;;;21.30;99.60;;;;;;5015443;28;20477;-76
2023/05/31 06:49:52;;;;;;;13.27;7.75;;;21.40;98.60;;;;;;5014996;28;20052;-76
2023/05/31 06:52:17;;;;;;;13.65;8.15;;;21.50;99.20;;;;;;5014782;28;20046;-76
2023/05/31 06:54:43;;;;;;;13.27;7.53;;;21.60;99.40;;;;;;5015016;28;20038;-76
2023/05/31 06:57:09;;;;;;;13.00;7.18;;;21.60;99.90;;;;;;5014990;28;20185;-76
2023/05/31 06:59:35;;;;;;;14.05;8.35;;;21.80;98.30;;;;;;5014888;28;20089;-76
2023/05/31 07:02:02;;;;;;;13.32;7.30;;;21.60;99.00;;;;;;5014884;28;20049;-75
2023/05/31 07:04:27;;;;;;;11.65;7.07;;;21.40;99.20;;;;;;4998465;28;20108;-76
2023/05/31 07:06:53;;;;;;;11.13;6.65;;;21.80;99.10;;;;;;5014768;28;20046;-75
2023/05/31 07:09:19;;;;;;;14.15;7.60;;;22.30;98.80;;;;;;5014603;28;20045;-75
2023/05/31 07:11:45;;;;;;;12.35;7.55;;;22.40;96.90;;;;;;4982297;28;20046;-75
2023/05/31 07:14:11;;;;;;;11.20;7.22;;;22.00;96.90;;;;;;5014620;28;20038;-75
2023/05/31 07:16:40;;;;;;;11.40;6.60;;;21.10;95.40;;;;;;4998231;28;20130;-75
2023/05/31 07:19:09;;;;;;;11.73;6.88;;;21.00;99.90;;;;;;4997302;28;20049;-75
2023/05/31 07:21:35;;;;;;;13.63;6.82;;;20.90;99.90;;;;;;4998217;28;20054;-75
2023/05/31 07:24:00;;;;;;;13.85;6.88;;;20.90;99.90;;;;;;5014722;28;20052;-75
2023/05/31 07:26:26;;;;;;;10.68;6.60;;;21.20;99.90;;;;;;5015702;28;20041;-76
2023/05/31 07:28:52;;;;;;;13.25;6.95;;;21.40;97.10;;;;;;4998012;28;20050;-76
2023/05/31 07:31:20;;;;;;;12.10;6.72;;;20.90;97.90;;;;;;4975014;28;20140;-76
2023/05/31 07:33:46;;;;;;;10.50;6.28;;;21.10;98.50;;;;;;5014169;28;20049;-76
2023/05/31 07:36:12;;;;;;;12.73;6.15;;;21.10;99.80;;;;;;5015734;28;20100;-77
2023/05/31 07:38:38;;;;;;;11.00;5.88;;;21.50;98.40;;;;;;5014272;28;20037;-77
2023/05/31 07:41:03;;;;;;;11.15;5.82;;;21.80;96.50;;;;;;5015658;28;20056;-77
2023/05/31 07:43:30;;;;;;;12.00;5.95;;;22.30;96.50;;;;;;5015274;28;20235;-76
2023/05/31 07:45:56;;;;;;;10.15;6.10;;;22.10;96.60;;;;;;5014431;28;20045;-76
2023/05/31 07:48:23;;;;;;;11.88;6.68;;;22.10;95.70;;;;;;4997658;28;20052;-76
2023/05/31 07:50:50;;;;;;;11.52;6.65;;;22.10;93.20;;;;;;5015192;28;20053;-75
2023/05/31 07:53:15;;;;;;;13.50;6.18;;;21.90;95.40;;;;;;5015269;28;20404;-75
2023/05/31 07:55:42;;;;;;;12.73;5.93;;;22.20;95.90;;;;;;5015380;28;20046;-75
2023/05/31 07:58:08;;;;;;;10.38;5.10;;;22.60;95.00;;;;;;5013687;28;20041;-77
2023/05/31 08:00:33;;;;;;;11.40;6.20;;;22.90;93.30;;;;;;5015253;28;20382;-75
2023/05/31 08:02:59;;;;;;;10.45;5.68;;;22.60;90.70;;;;;;5014992;28;20042;-75
2023/05/31 08:05:26;;;;;;;9.98;5.82;;;22.70;92.20;;;;;;5014199;28;20077;-76
2023/05/31 08:07:52;;;;;;;13.07;5.45;;;22.40;91.70;;;;;;5013606;28;20060;-76
2023/05/31 08:10:18;;;;;;;10.30;5.55;;;22.90;92.70;;;;;;5013979;28;20490;-75
2023/05/31 08:12:44;;;;;;;10.13;5.20;;;23.20;90.90;;;;;;5013746;28;20045;-76
2023/05/31 08:15:11;;;;;;;10.15;5.07;;;23.40;90.70;;;;;;5013721;28;20050;-76
2023/05/31 08:17:37;;;;;;;11.32;5.30;;;23.40;89.10;;;;;;5014817;28;20406;-76
2023/05/31 08:20:06;;;;;;;10.57;4.95;;;23.40;88.60;;;;;;5014379;28;20041;-75
2023/05/31 08:22:32;;;;;;;11.75;5.03;;;23.70;87.10;;;;;;5014826;28;20506;-76
2023/05/31 08:24:58;;;;;;;12.18;5.20;;;23.60;86.60;;;;;;5014590;28;20167;-75
2023/05/31 08:27:24;;;;;;;9.35;4.68;;;23.40;88.10;;;;;;5014462;28;20138;-76
2023/05/31 08:29:50;;;;;;;10.07;4.68;;;23.30;86.10;;;;;;5014538;28;20053;-75
2023/05/31 08:32:17;;;;;;;9.60;4.75;;;22.90;86.80;;;;;;5014398;28;20120;-75
2023/05/31 08:34:44;;;;;;;9.30;4.53;;;23.00;85.10;;;;;;5014573;28;20117;-76
2023/05/31 08:37:12;;;;;;;10.10;4.43;;;22.70;85.40;;;;;;5013215;28;20453;-75
2023/05/31 08:39:38;;;;;;;11.85;4.40;;;22.80;83.70;;;;;;5004396;28;20042;-74
2023/05/31 08:42:09;;;;;;;9.63;4.57;;;22.50;84.10;;;;;;4966134;28;20142;-75
2023/05/31 08:44:35;;;;;;;7.60;4.20;;;22.80;87.40;;;;;;5012876;28;20418;-75
2023/05/31 08:47:25;;;;;;;9.95;4.43;;;22.90;85.90;;;;;;5014104;28;20044;-75
2023/05/31 08:49:54;;;;;;;8.30;4.20;;;23.10;85.40;;;;;;5013188;28;20050;-75
2023/05/31 08:52:21;;;;;;;7.95;3.60;;;23.50;84.20;;;;;;5012706;28;20115;-76
2023/05/31 08:54:49;;;;;;;9.20;3.90;;;23.70;83.30;;;;;;5014081;28;20453;-75
2023/05/31 08:57:15;;;;;;;9.57;3.70;;;23.60;80.70;;;;;;5013089;28;20096;-75
2023/05/31 08:59:43;;;;;;;8.95;4.03;;;23.60;82.40;;;;;;5014306;28;20045;-76
2023/05/31 09:02:10;;;;;;;10.50;3.92;;;23.60;81.60;;;;;;5013920;28;20045;-75
2023/05/31 09:04:37;;;;;;;8.25;3.60;;;23.60;82.50;;;;;;5012716;28;20061;-76
2023/05/31 09:07:05;;;;;;;8.30;3.63;;;23.90;79.30;;;;;;5013938;28;20038;-75
2023/05/31 09:09:31;;;;;;;10.63;3.80;;;23.80;77.70;;;;;;5012521;28;20157;-75
2023/05/31 09:11:57;;;;;;;9.52;3.75;;;23.50;78.80;;;;;;5013696;28;20041;-76
2023/05/31 09:14:26;;;;;;;9.80;3.70;;;23.60;78.00;;;;;;5013583;28;20073;-75
2023/05/31 09:16:52;;;;;;;10.10;3.67;;;23.50;75.10;;;;;;5013739;28;20179;-74
2023/05/31 09:19:18;;;;;;;9.25;3.78;;;23.50;78.40;;;;;;5013686;28;20037;-75
2023/05/31 09:21:45;;;;;;;8.85;3.72;;;23.70;77.80;;;;;;5013397;28;20123;-75
2023/05/31 09:24:16;;;;;;;9.10;3.63;;;23.60;74.50;;;;;;5012353;28;20045;-75
2023/05/31 09:26:47;;;;;;;;;;;23.60;74.70;;;;;;5014328;28;20124;-75
2023/05/31 09:29:13;;;;;;;11.77;4.05;;;23.50;76.70;;;;;;4996083;28;19917;-75
2023/05/31 09:31:39;;;;;;;7.32;3.78;;;23.40;77.40;;;;;;5013735;28;20042;-75
2023/05/31 09:34:04;;;;;;;9.20;3.60;;;23.60;79.20;;;;;;4995826;28;20053;-75
2023/05/31 09:36:31;;;;;;;9.05;4.13;;;23.80;79.30;;;;;;5012114;28;20050;-74
2023/05/31 09:39:05;;;;;;;10.35;4.10;;;23.90;77.20;;;;;;5012354;28;20158;-75
2023/05/31 09:41:32;;;;;;;8.82;4.03;;;24.10;77.70;;;;;;5012017;28;20045;-75
2023/05/31 09:43:58;;;;;;;10.43;4.10;;;24.40;74.00;;;;;;5011946;28;20038;-75
2023/05/31 09:46:25;;;;;;;8.80;4.00;;;24.50;74.80;;;;;;5011953;28;20124;-75
2023/05/31 09:49:01;;;;;;;8.38;3.80;;;24.20;73.40;;;;;;5012027;28;20048;-75
2023/05/31 09:51:28;;;;;;;11.55;4.30;;;24.00;74.30;;;;;;5013400;28;20165;-75
2023/05/31 09:53:55;;;;;;;10.40;4.55;;;23.70;76.10;;;;;;5013184;28;20053;-75
2023/05/31 09:56:23;;;;;;;9.18;3.97;;;23.50;76.40;;;;;;5013353;28;20038;-74
2023/05/31 09:58:49;;;;;;;10.25;4.53;;;23.60;76.80;;;;;;5011964;28;20124;-75
2023/05/31 10:01:16;;;;;;;9.27;4.40;;;23.70;76.60;;;;;;4995615;28;20100;-74
2023/05/31 10:03:43;;;;;;;9.27;4.32;;;23.70;75.60;;;;;;5013115;28;20085;-75
2023/05/31 10:06:09;;;;;;;9.00;3.80;;;24.00;76.40;;;;;;5012129;28;20439;-75
2023/05/31 10:08:35;;;;;;;9.27;4.10;;;24.10;74.80;;;;;;4995480;28;20122;-75
2023/05/31 10:11:02;;;;;;;9.48;4.10;;;24.10;75.70;;;;;;5013051;28;20045;-75
2023/05/31 10:13:29;;;;;;;9.52;4.38;;;24.10;76.30;;;;;;5011852;28;20089;-74
2023/05/31 10:16:08;;;;;;;9.05;4.20;;;23.60;75.00;;;;;;4995958;28;20397;-75
2023/05/31 10:18:38;;;;;;;8.05;3.90;;;23.90;73.60;;;;;;5011718;28;20048;-74
2023/05/31 10:21:12;;;;;;;10.65;4.00;;;24.00;76.20;;;;;;5011577;28;20058;-75
2023/05/31 10:23:45;;;;;;;8.48;3.88;;;24.20;76.00;;;;;;5013373;28;20081;-64
2023/05/31 10:26:17;;;;;;;8.10;3.20;;;24.10;75.00;;;;;;5011607;28;20104;-64
2023/05/31 10:29:13;;;;;;;9.73;3.95;;;24.20;77.80;;;;;;5012910;28;20038;-64
2023/05/31 10:31:48;;;;;;;7.82;3.70;;;24.30;75.10;;;;;;5012878;28;20037;-64
2023/05/31 10:34:25;;;;;;;9.65;3.78;;;24.10;73.70;;;;;;5013090;28;20050;-64
2023/05/31 10:36:53;;;;;;;9.90;3.58;;;24.20;74.50;;;;;;5011900;28;20038;-64
2023/05/31 10:39:40;;;;;;;8.82;3.60;;;24.40;74.80;;;;;;5013113;28;20522;-65
2023/05/31 10:42:09;;;;;;;9.57;4.10;;;24.20;73.40;;;;;;5011359;28;20038;-64
2023/05/31 10:45:05;;;;;;;9.48;4.00;;;24.10;73.90;;;;;;5011796;28;20050;-64
2023/05/31 10:47:46;;;;;;;8.50;3.88;;;24.40;73.20;;;;;;5001674;28;20132;-65
2023/05/31 10:50:22;;;;;;;9.20;4.22;;;24.70;72.70;;;;;;5011733;28;20061;-64
2023/05/31 10:52:52;;;;;;;10.18;3.78;;;24.20;70.50;;;;;;5011397;28;20050;-65
2023/05/31 10:55:26;;;;;;;10.57;4.25;;;24.40;72.80;;;;;;5015291;28;20037;-65
2023/05/31 10:57:58;;;;;;;9.20;4.22;;;24.50;72.70;;;;;;5014946;28;20053;-64
2023/05/31 11:00:25;;;;;;;9.05;3.72;;;24.40;71.60;;;;;;5016751;28;20062;-64
2023/05/31 11:02:58;;;;;;;11.20;4.63;;;24.40;72.80;;;;;;4998919;28;20055;-65
2023/05/31 11:05:26;;;;;;;9.70;4.40;;;24.50;71.40;;;;;;5016326;28;20042;-65
2023/05/31 11:07:54;;;;;;;9.77;4.13;;;24.40;70.80;;;;;;5016420;28;20044;-64
2023/05/31 11:10:32;;;;;;;8.07;3.90;;;24.40;72.20;;;;;;5014703;28;20077;-64
2023/05/31 11:13:03;;;;;;;9.40;4.30;;;24.30;73.40;;;;;;5014654;28;20052;-64
2023/05/31 11:15:40;;;;;;;8.20;4.28;;;24.30;72.40;;;;;;5014902;28;20130;-64
2023/05/31 11:18:25;;;;;;;10.35;4.43;;;24.40;74.70;;;;;;4998577;28;20049;-64
2023/05/31 11:20:51;;;;;;;11.93;4.85;;;24.20;75.60;;;;;;5013220;28;20097;-64
2023/05/31 11:23:17;;;;;;;11.25;4.60;;;24.00;79.80;;;;;;5013876;28;20088;-64
2023/05/31 11:25:43;;;;;;;9.38;4.75;;;24.20;82.40;;;;;;5015625;28;20084;-64
2023/05/31 11:28:22;;;;;;;10.07;4.75;;;23.80;83.40;;;;;;4981492;28;20056;-64
2023/05/31 11:30:47;;;;;;;10.48;5.15;;;23.80;81.70;;;;;;5014765;28;20048;-64
2023/05/31 11:33:15;;;;;;;10.60;5.07;;;23.70;85.90;;;;;;5015396;28;20129;-64
2023/05/31 11:35:41;;;;;;;11.75;5.22;;;23.70;86.80;;;;;;5014655;28;20041;-64
2023/05/31 11:38:07;;;;;;;9.23;4.60;;;23.40;88.90;;;;;;5015756;28;20037;-64
2023/05/31 11:40:35;;;;;;;10.27;4.80;;;23.50;90.10;;;;;;5015618;28;20117;-64
2023/05/31 11:43:06;;;;;;;10.20;4.82;;;23.50;90.50;;;;;;5014294;28;20502;-64
2023/05/31 11:45:33;;;;;;;11.82;5.35;;;23.50;90.70;;;;;;5015372;28;20103;-65
2023/05/31 11:48:30;;;;;;;9.10;4.70;;;23.70;90.20;;;;;;5013553;28;20034;-65
2023/05/31 11:50:56;;;;;;;10.27;5.15;;;23.70;89.10;;;;;;5014094;28;20506;-64
2023/05/31 11:53:22;;;;;;;13.25;4.35;;;23.60;89.40;;;;;;5015287;28;20053;-64
2023/05/31 11:55:48;;;;;;;10.40;5.28;;;23.70;87.50;;;;;;5013194;28;20067;-64
2023/05/31 11:58:14;;;;;;;9.98;4.78;;;23.60;89.30;;;;;;5014162;28;20077;-64
2023/05/31 12:00:46;;;;;;;10.48;4.88;;;23.60;90.00;;;;;;5014260;28;20034;-64
2023/05/31 12:03:16;;;;;;;12.30;5.10;;;23.70;86.70;;;;;;5013227;28;20184;-64
2023/05/31 12:05:51;;;;;;;10.70;4.88;;;23.60;87.60;;;;;;5013543;28;20042;-64
2023/05/31 12:08:16;;;;;;;9.68;4.75;;;23.70;88.70;;;;;;5014313;28;20482;-65
2023/05/31 12:10:42;;;;;;;12.55;5.28;;;23.40;88.80;;;;;;5014799;28;20091;-65
2023/05/31 12:13:09;;;;;;;12.45;5.15;;;23.40;90.60;;;;;;5014929;28;20173;-65
2023/05/31 12:15:35;;;;;;;10.23;5.55;;;23.30;90.50;;;;;;5014130;28;20041;-65
2023/05/31 12:18:01;;;;;;;13.00;5.22;;;23.20;90.90;;;;;;5012727;28;20095;-63
2023/05/31 12:20:28;;;;;;;11.65;5.35;;;23.30;91.50;;;;;;5013130;28;20166;-64
2023/05/31 12:23:09;;;;;;;11.32;5.38;;;23.10;91.10;;;;;;5014820;28;20046;-64
2023/05/31 12:25:35;;;;;;;9.98;5.63;;;23.20;91.00;;;;;;5013669;28;20391;-63
2023/05/31 12:28:02;;;;;;;9.82;5.20;;;23.10;91.10;;;;;;5014508;28;20044;-64
2023/05/31 12:30:28;;;;;;;10.93;5.40;;;23.20;91.30;;;;;;5014599;28;20126;-64
2023/05/31 12:32:57;;;;;;;12.15;5.70;;;23.10;91.20;;;;;;5013411;28;20117;-64
2023/05/31 12:35:24;;;;;;;11.10;5.70;;;23.10;91.30;;;;;;4996676;28;20062;-64
2023/05/31 12:37:51;;;;;;;9.75;5.15;;;22.80;91.40;;;;;;5014660;28;20113;-64
2023/05/31 12:40:22;;;;;;;10.20;5.43;;;22.80;91.40;;;;;;5014506;28;20041;-64
2023/05/31 12:42:48;;;;;;;12.50;5.47;;;22.90;91.50;;;;;;5014236;28;20038;-64
2023/05/31 12:45:18;;;;;;;10.55;5.00;;;22.90;92.30;;;;;;5013209;28;20044;-64
2023/05/31 12:47:43;;;;;;;9.38;5.00;;;23.10;91.30;;;;;;5012192;28;20037;-64